Skip Navigation Links weather.gov 
NOAA logo-Select to go to the NOAA homepage NDBC Title GraphicClick to go to NDBC home page   Select to go to the NWS homepage
Home About Us Contact Us
 
 
    
    Station List

 Data Access
    Mobile Access
    Classic Maps
         Recent
         DART®
    Obs Search
    Ship Obs Report
    BuoyCAMs
    TAO
    DODS
    OceanSITES
    HF Radar
    OSMC
    Dial-A-Buoy
    RSS Feeds Image indicating link to RSS feed access page
    Web Widget
    Web Data Guide
    Maintenance Schedule
    Station Status Report

 Program Info
    TAO
    DART®
    IOOS®

 Publications
    NDBC PEA
    NDBC FONSI
    NDBC DQC Handbook

 Visitor Information
 
USA.gov is the U.S. government's official web portal to all federal, state and local government web resources and services.

Station EREP1 - 9063038 - Erie Image indicating link to RSS feed of recent meteorological observations for station EREP1

Owned and maintained by NOAA's National Ocean Service
C-MAN Station
42.172 N 80.098 W (42°10'19" N 80°5'51" W)

Site elevation: 177 m above mean sea level
Anemometer height: 10.7 m above site elevation

Search And Rescue (SAR) Data

Meteorological Observations from Nearby Stations and Ships Image indicating link to RSS feed of recent meteorological observations near station EREP1

Station EREP1
Large icon indicates selected station.
yellow diamond Stations with recent data
red diamond Stations with no data in last 8 hours
     (24 hours for tsunami stations)


Conditions at EREP1 as of
(4:48 am EST)
0948 GMT on 01/19/2020:
     

Click on the graph icon in the table below to see a time series plot of the last five days of that observation.

5-day plot - Wind Direction Wind Direction (WDIR): W ( 260 deg true )
5-day plot - Wind Speed Wind Speed (WSPD): 25 kts
5-day plot - Wind Gust Wind Gust (GST): 34 kts
5-day plot - Wind Speed at 10 Meters Wind Speed at 10 meters (WSPD10M): 25 kts
5-day plot - Wind Speed at 10 Meters Wind Speed at 20 meters (WSPD20M): 27 kts
5-day plot - Wind Speed, Wind Gust and Atmospheric Pressure Combined plot of Wind Speed, Gust, and Air Pressure
NOS Water Level Observation Network Water Level
Previous observations
5-day plot - Wind Direction 5-day plot - Wind Speed 5-day plot - Wind Gust 5-day plot - Wave Height 5-day plot - Dominant Wave Period 5-day plot - Average Period 5-day plot - Mean Wave Direction 5-day plot - Atmospheric Pressure 5-day plot - Pressure Tendency 5-day plot - Air Temperature 5-day plot - Water Temperature 5-day plot - Dew Point 5-day plot - Salinity 5-day plot - Visibility 5-day plot - Tide (above MLLW)
MM DD TIME
(EST)
WDIR WSPD
kts
GST
kts
WVHT
ft
DPD
sec
APD
sec
MWD PRES
in
PTDY
in
ATMP
°F
WTMP
°F
DEWP
°F
SAL
psu
VIS
nmi
TIDE
ft
0119 4:42 am W 22 38------------
0119 4:36 am W 21 33------------
0119 4:30 am W 23 33------------
0119 4:24 am W 23 29------------
0119 4:18 am W 21 31------------
0119 4:12 am W 25 36------------
0119 4:06 am W 21 33------------
0119 4:00 am W 21 33------------
0119 3:54 am W 26 35------------
0119 3:48 amWSW 21 34------------
0119 3:42 am W 23 36------------
0119 3:36 am W 22 32------------
0119 3:30 am W 22 34------------
0119 3:24 amWSW 20 35------------
0119 3:18 am W 25 34------------
0119 3:12 am W 25 34------------
0119 3:06 am W 24 33------------
0119 3:00 amWSW 22 33------------
0119 2:54 am W 20 34------------
0119 2:48 am W 20 34------------
0119 2:42 am W 19 30------------
0119 2:36 amWSW 21 34------------
0119 2:30 am W 23 34------------
0119 2:24 am W 26 37------------
0119 2:18 am W 24 31------------
0119 2:12 am W 26 34------------
0119 2:06 am W 26 34------------
0119 2:00 am W 24 36------------
0119 1:54 am W 23 31------------
0119 1:48 amWSW 21 35------------
0119 1:42 am W 23 35------------
0119 1:36 am W 19 30------------
0119 1:30 amWSW 18 32------------
0119 1:24 amWSW 18 32------------
0119 1:18 amWSW 21 34------------
0119 1:12 am W 24 33------------
0119 1:06 amWSW 19 29------------
0119 1:00 amWSW 19 29------------
011912:54 amWSW 16 26------------
011912:48 amWSW 17 32------------
011912:42 am W 20 29------------
011912:36 am W 20 29------------
011912:30 amWSW 20 28------------
011912:24 am W 21 33------------
011912:18 amWSW 13 21------------
011912:12 am W 18 23------------
011912:06 am W 18 23------------
011912:00 am W 19 26------------
011811:54 pm W 17 23------------
011811:48 pmWSW 14 21------------
011811:42 pmWSW 15 25------------
011811:36 pm W 16 23------------
011811:30 pm W 15 25------------
011811:24 pm W 16 25------------
011811:18 pmWSW 14 25------------
011811:12 pm W 18 27------------
011811:06 pm W 19 27------------
011811:00 pm W 19 29------------
011810:54 pm W 17 26------------
011810:48 pmWSW 16 26------------
011810:42 pmWSW 15 25------------
011810:36 pm W 18 29------------
011810:30 pm W 19 32------------
011810:24 pm W 19 32------------
011810:18 pmWSW 18 32------------
011810:12 pmWSW 17 27------------
011810:06 pmWSW 17 29------------
011810:00 pmWSW 17 26------------
0118 9:54 pmWSW 21 32------------
0118 9:48 pmWSW 19 29------------
0118 9:42 pmWSW 19 30------------
0118 9:36 pm W 19 29------------
0118 9:30 pmWSW 17 31------------
0118 9:24 pmWSW 17 31------------
0118 9:18 pmWSW 15 26------------
0118 9:12 pmWSW 18 33------------
0118 9:06 pmWSW 16 27------------
0118 9:00 pmWSW 18 30------------
0118 8:54 pmWSW 17 29------------
0118 8:48 pmWSW 17 28------------
0118 8:42 pmWSW 17 28------------
0118 8:36 pmWSW 19 28------------
0118 8:30 pmWSW 19 33------------
0118 8:24 pm W 21 32------------
0118 8:18 pmWSW 17 30------------
0118 8:12 pmWSW 20 32------------
0118 8:06 pmWSW 19 30------------
0118 8:00 pmWSW 20 29------------
0118 7:54 pm W 21 31------------
0118 7:48 pmWSW 21 30------------
0118 7:42 pmWSW 18 32------------
0118 7:36 pmWSW 19 31------------
0118 7:30 pmWSW 22 31------------
0118 7:24 pm W 21 32------------
0118 7:18 pmWSW 20 33------------
0118 7:12 pmWSW 21 34------------
0118 7:06 pmWSW 21 34------------
0118 7:00 pmWSW 20 36------------
0118 6:54 pmWSW 17 27------------
0118 6:48 pmWSW 17 35------------
0118 6:42 pmWSW 17 35------------
0118 6:36 pmWSW 21 32------------
0118 6:30 pmWSW 20 32------------
0118 6:24 pmWSW 24 33------------
0118 6:18 pmWSW 13 23------------
0118 6:12 pm SW 11 18------------
0118 6:06 pm SW 9 17------------
0118 6:00 pm SW 10 23------------
0118 5:54 pm SW 8 21------------
0118 5:48 pm SW 11 20------------
0118 5:42 pm SW 11 18------------
0118 5:36 pm SW 11 22------------
0118 5:30 pmSSW 11 21------------
0118 5:24 pm SW 12 19------------
0118 5:18 pmSSW 11 19------------
0118 5:12 pmSSW 11 25------------
0118 5:06 pm SW 13 23------------
0118 5:00 pmSSW 13 25------------
0118 4:54 pmSSW 13 23------------
0118 4:48 pmSSW 12 23------------
0118 4:42 pmSSW 10 21------------
0118 4:36 pm SW 13 22------------
0118 4:30 pmSSW 11 18------------
0118 4:24 pmSSW 11 18------------
0118 4:18 pm SW 12 21------------
0118 4:12 pm S 13 25------------
0118 4:06 pmSSW 10 21------------
0118 4:00 pmSSW 10 21------------
0118 3:54 pmSSW 13 23------------
0118 3:48 pmSSW 15 20------------
0118 3:42 pmSSW 13 24------------
0118 3:36 pmSSW 13 22------------
0118 3:30 pmSSW 11 21------------
0118 3:00 pm SW 8 20------------
0118 2:54 pm S 9 19------------
0118 2:48 pm S 9 19------------
0118 2:42 pmSSW 8 18------------
0118 2:36 pmSSW 11 20------------
0118 2:30 pm S 12 20------------
0118 2:24 pm S 12 20------------
0118 2:18 pm S 11 22------------
0118 2:12 pm S 10 22------------
0118 2:06 pmSSW 9 18------------
0118 2:00 pm SW 3 5------------
0118 1:54 pm SW 3 5------------
0118 1:48 pm W 2 3------------
0118 1:42 pmSSW 3 5------------
0118 1:36 pm S 2 5------------
0118 1:30 pm S 3 5------------
0118 1:24 pm S 3 5------------
0118 1:18 pm S 3 6------------
0118 1:12 pm S 2 4------------
0118 1:06 pm S 2 5------------
0118 1:00 pm S 2 3------------
011812:54 pm S 2 3------------
011812:48 pm S 3 5------------
011812:42 pm S 3 5------------
011812:36 pm S 3 4------------
011812:30 pm S 3 5------------
011812:24 pmSSW 3 4------------
011812:18 pm S 3 5------------
011812:12 pm S 4 6------------
011812:06 pm S 4 6------------
011812:00 pmSSE 3 7------------
011811:54 am S 3 6------------
011811:48 am S 3 7------------
011811:42 am S 3 6------------
011811:36 am S 4 8------------
011811:30 am S 4 8------------
011811:24 am S 4 10------------
011811:18 am S 7 11------------
011811:12 am S 7 13------------
011811:06 am S 9 15------------
011811:00 am S 9 13------------
011810:54 am S 8 14------------
011810:48 am S 6 14------------
011810:42 am S 7 12------------
011810:36 am S 7 12------------
011810:30 am S 4 12------------
011810:24 am S 5 12------------
011810:18 am S 4 11------------
011810:12 am S 4 8------------
011810:06 amSSE 5 15------------
011810:00 am S 6 12------------
0118 9:54 am S 6 12------------
0118 9:48 amSSE 9 14------------
0118 9:42 amSSE 10 16------------
0118 9:36 am S 7 15------------
0118 9:30 am S 7 12------------
0118 9:24 am S 6 10------------
0118 9:18 am S 6 10------------
0118 9:12 amSSE 4 10------------
0118 9:06 amSSE 5 11------------
0118 9:00 amSSE 6 13------------
0118 8:54 amSSE 6 13------------
0118 8:48 amSSE 7 12------------
0118 8:42 amSSE 7 12------------
0118 8:36 amSSE 5 12------------
0118 8:30 am S 10 14------------
0118 8:24 amSSE 6 15------------
0118 8:18 am S 8 16------------
0118 8:12 am S 8 14------------
0118 8:06 am S 10 18------------
0118 8:00 am S 7 16------------
0118 7:54 am S 10 14------------
0118 7:48 am S 9 15------------
0118 7:42 am S 8 16------------
0118 7:36 am S 8 16------------
0118 7:30 am S 8 16------------
0118 7:24 am S 9 17------------
0118 7:18 amSSE 8 22------------
0118 7:12 amSSE 13 20------------
0118 7:06 amSSE 11 20------------
0118 7:00 amSSE 10 20------------
0118 6:54 amSSE 12 19------------
0118 6:48 am S 7 14------------
0118 6:42 amSSE 7 12------------
0118 6:36 am SE 7 16------------
0118 6:30 am SE 6 13------------
0118 6:24 amSSE 7 15------------
0118 6:18 amSSE 9 19------------
0118 6:12 amSSE 12 21------------
0118 6:06 amSSE 6 15------------
0118 6:00 amSSE 6 15------------
0118 5:54 am SE 8 15------------

Description of Measurements

Links which are specific to this station are listed below:

Real Time Data in tabular form for the last forty-five days.

Historical Data & Climatic Summaries for quality controlled data for the current month, previous months, and previous years.